createdAt,value
2022-08-26T00:01:13.471Z,95463.59
2022-08-26T00:03:40.654Z,95466.69
2022-08-26T00:06:08.790Z,95455.31
2022-08-26T00:08:35.996Z,95454.50
2022-08-26T00:11:06.009Z,95453.94
2022-08-26T00:13:35.654Z,95454.94
2022-08-26T00:16:03.624Z,95446.09
2022-08-26T00:18:31.153Z,95452.69
2022-08-26T00:21:06.821Z,95456.31
2022-08-26T00:23:34.192Z,95458.78
2022-08-26T00:26:01.953Z,95454.03
2022-08-26T00:28:29.022Z,95452.19
2022-08-26T00:30:56.180Z,95452.03
2022-08-26T00:33:23.256Z,95458.28
2022-08-26T00:35:50.592Z,95458.28
2022-08-26T00:38:18.826Z,95451.25
2022-08-26T00:40:47.955Z,95451.13
2022-08-26T00:43:15.750Z,95451.47
2022-08-26T00:45:45.203Z,95455.78
2022-08-26T00:48:14.801Z,95447.59
2022-08-26T00:50:45.539Z,95452.59
2022-08-26T00:53:24.180Z,95448.59
2022-08-26T00:55:53.762Z,95446.91
2022-08-26T00:58:22.505Z,95447.59
2022-08-26T01:00:49.682Z,95448.38
2022-08-26T01:03:19.605Z,95449.06
2022-08-26T01:05:48.058Z,95447.91
2022-08-26T01:08:15.211Z,95449.53
2022-08-26T01:10:42.548Z,95448.72
2022-08-26T01:13:12.761Z,95446.66
2022-08-26T01:15:45.225Z,95451.63
2022-08-26T01:18:13.339Z,95442.41
2022-08-26T01:21:01.994Z,95450.47
2022-08-26T01:23:32.442Z,95450.94
2022-08-26T01:26:02.925Z,95446.38
2022-08-26T01:28:33.933Z,95447.25
2022-08-26T01:31:02.998Z,95451.75
2022-08-26T01:33:40.004Z,95455.03
2022-08-26T01:36:09.782Z,95451.25
2022-08-26T01:38:36.811Z,95459.09
2022-08-26T01:41:04.380Z,95448.34
2022-08-26T01:43:45.924Z,95454.91
2022-08-26T01:46:14.235Z,95447.41
2022-08-26T01:48:42.392Z,95454.19
2022-08-26T01:51:11.180Z,95458.03
2022-08-26T01:53:39.066Z,95452.25
2022-08-26T01:56:10.411Z,95455.00
2022-08-26T01:58:46.709Z,95455.00
2022-08-26T02:01:14.594Z,95454.19
2022-08-26T02:03:51.410Z,95457.38
2022-08-26T02:06:19.754Z,95451.94
2022-08-26T02:08:51.670Z,95447.94
2022-08-26T02:11:19.067Z,95448.75
2022-08-26T02:13:48.808Z,95453.72
2022-08-26T02:16:18.378Z,95450.72
2022-08-26T02:18:47.082Z,95449.94
2022-08-26T02:21:14.395Z,95453.94
2022-08-26T02:23:42.603Z,95450.72
2022-08-26T02:26:18.031Z,95450.94
2022-08-26T02:28:50.392Z,95447.41
2022-08-26T02:31:17.658Z,95449.03
2022-08-26T02:33:44.790Z,95443.09
2022-08-26T02:36:12.096Z,95454.50
2022-08-26T02:38:40.504Z,95445.41
2022-08-26T02:41:11.221Z,95444.94
2022-08-26T02:43:38.351Z,95437.56
2022-08-26T02:46:05.985Z,95445.41
2022-08-26T02:48:33.373Z,95437.56
2022-08-26T02:51:01.816Z,95441.28
2022-08-26T02:53:32.082Z,95444.09
2022-08-26T02:56:03.587Z,95434.16
2022-08-26T02:58:30.604Z,95435.97
2022-08-26T03:00:57.690Z,95436.44
2022-08-26T03:03:25.307Z,95438.22
2022-08-26T03:05:53.413Z,95441.72
2022-08-26T03:08:22.223Z,95437.09
2022-08-26T03:10:49.353Z,95433.56
2022-08-26T03:13:16.738Z,95438.22
2022-08-26T03:15:44.382Z,95439.00
2022-08-26T03:18:13.267Z,95430.06
2022-08-26T03:20:40.305Z,95435.03
2022-08-26T03:23:09.039Z,95419.69
2022-08-26T03:25:36.247Z,95421.94
2022-08-26T03:28:03.996Z,95425.00
2022-08-26T03:30:45.440Z,95422.94
2022-08-26T03:33:13.395Z,95416.06
2022-08-26T03:35:41.720Z,95420.69
2022-08-26T03:38:09.429Z,95419.09
2022-08-26T03:40:37.129Z,95423.75
2022-08-26T03:43:05.166Z,95420.69
2022-08-26T03:45:33.502Z,95419.91
2022-08-26T03:48:00.617Z,95420.69
2022-08-26T03:50:29.372Z,95420.88
2022-08-26T03:53:02.247Z,95415.78
2022-08-26T03:55:31.979Z,95410.84
2022-08-26T03:57:59.308Z,95415.47
2022-08-26T04:00:26.349Z,95420.16
2022-08-26T04:02:53.619Z,95421.72
2022-08-26T04:05:21.832Z,95423.00
2022-08-26T04:07:50.618Z,95420.28
2022-08-26T04:10:20.390Z,95434.66
2022-08-26T04:12:47.637Z,95434.19
2022-08-26T04:15:15.711Z,95431.94
2022-08-26T04:17:43.116Z,95424.28
2022-08-26T04:20:13.860Z,95427.44
2022-08-26T04:22:44.093Z,95431.31
2022-08-26T04:25:11.397Z,95420.44
2022-08-26T04:27:38.862Z,95419.47
2022-08-26T04:30:08.939Z,95422.53
2022-08-26T04:32:37.311Z,95421.72
2022-08-26T04:35:05.035Z,95429.06
2022-08-26T04:37:33.581Z,95426.34
2022-08-26T04:40:00.841Z,95434.06
2022-08-26T04:42:29.277Z,95429.44
2022-08-26T04:44:56.381Z,95430.56
2022-08-26T04:47:23.441Z,95425.13
2022-08-26T04:49:51.723Z,95429.44
2022-08-26T04:52:19.390Z,95430.56
2022-08-26T04:54:47.053Z,95433.59
2022-08-26T04:57:14.080Z,95437.91
2022-08-26T04:59:41.116Z,95440.16
2022-08-26T05:02:08.192Z,95442.56
2022-08-26T05:04:36.225Z,95436.47
2022-08-26T05:07:03.752Z,95449.06
2022-08-26T05:09:30.801Z,95446.63
2022-08-26T05:11:57.856Z,95439.75
2022-08-26T05:14:25.014Z,95443.38
2022-08-26T05:16:52.196Z,95442.38
2022-08-26T05:19:19.768Z,95445.25
2022-08-26T05:21:48.692Z,95440.72
2022-08-26T05:24:16.591Z,95451.88
2022-08-26T05:26:44.438Z,95450.22
2022-08-26T05:29:12.109Z,95446.22
2022-08-26T05:31:39.202Z,95445.03
2022-08-26T05:34:06.984Z,95444.63
2022-08-26T05:36:36.202Z,95450.44
2022-08-26T05:39:04.919Z,95445.41
2022-08-26T05:41:36.133Z,95448.63
2022-08-26T05:44:05.052Z,95447.69
2022-08-26T05:46:32.209Z,95442.72
2022-08-26T05:48:59.588Z,95445.34
2022-08-26T05:51:27.281Z,95449.91
2022-08-26T05:53:57.598Z,95441.53
2022-08-26T05:56:27.438Z,95447.13
2022-08-26T05:58:55.496Z,95450.19
2022-08-26T06:01:25.528Z,95449.06
2022-08-26T06:03:54.697Z,95443.00
2022-08-26T06:06:27.918Z,95446.97
2022-08-26T06:08:59.122Z,95450.63
2022-08-26T06:11:27.162Z,95438.59
2022-08-26T06:13:56.378Z,95444.81
2022-08-26T06:16:26.088Z,95439.72
2022-08-26T06:18:53.691Z,95437.41
2022-08-26T06:21:28.451Z,95442.03
2022-08-26T06:24:15.640Z,95444.97
2022-08-26T06:26:46.907Z,95453.53
2022-08-26T06:29:24.416Z,95449.66
2022-08-26T06:31:53.115Z,95451.88
2022-08-26T06:34:20.706Z,95446.41
2022-08-26T06:36:49.246Z,95449.34
2022-08-26T06:39:20.150Z,95457.81
2022-08-26T06:41:47.620Z,95455.53
2022-08-26T06:44:44.814Z,95452.03
2022-08-26T06:47:12.230Z,95459.53
2022-08-26T06:49:39.788Z,95452.31
2022-08-26T06:52:07.028Z,95451.16
2022-08-26T06:54:35.383Z,95452.31
2022-08-26T06:57:05.937Z,95454.06
2022-08-26T06:59:34.223Z,95457.78
2022-08-26T07:02:02.351Z,95452.03
2022-08-26T07:04:29.702Z,95460.91
2022-08-26T07:06:56.790Z,95455.13
2022-08-26T07:09:25.561Z,95451.81
2022-08-26T07:11:53.474Z,95452.94
2022-08-26T07:14:27.377Z,95459.31
2022-08-26T07:16:54.925Z,95451.22
2022-08-26T07:19:30.607Z,95453.88
2022-08-26T07:22:00.083Z,95454.44
2022-08-26T07:24:30.403Z,95457.66
2022-08-26T07:27:02.682Z,95456.03
2022-08-26T07:29:30.188Z,95454.09
2022-08-26T07:31:57.276Z,95460.28
2022-08-26T07:34:25.393Z,95462.47
2022-08-26T07:36:55.670Z,95461.28
2022-08-26T07:39:22.781Z,95457.66
2022-08-26T07:41:50.336Z,95456.22
2022-08-26T07:44:17.590Z,95459.56
2022-08-26T07:46:52.380Z,95456.25
2022-08-26T07:49:21.706Z,95452.81
2022-08-26T07:51:49.830Z,95460.66
2022-08-26T07:54:17.031Z,95454.41
2022-08-26T07:56:44.624Z,95459.19
2022-08-26T07:59:13.616Z,95460.50
2022-08-26T08:01:41.309Z,95456.66
2022-08-26T08:04:17.196Z,95459.44
2022-08-26T08:06:45.310Z,95454.59
2022-08-26T08:09:13.649Z,95454.66
2022-08-26T08:11:41.443Z,95456.41
2022-08-26T08:14:11.803Z,95459.25
2022-08-26T08:16:42.361Z,95456.28
2022-08-26T08:19:13.582Z,95450.72
2022-08-26T08:21:41.976Z,95451.50
2022-08-26T08:24:11.142Z,95452.16
2022-08-26T08:26:38.590Z,95454.63
2022-08-26T08:29:06.043Z,95446.16
2022-08-26T08:31:56.185Z,95449.97
2022-08-26T08:34:21.620Z,95449.28
2022-08-26T08:36:50.322Z,95447.00
2022-08-26T08:39:20.639Z,95450.91
2022-08-26T08:41:58.073Z,95442.81
2022-08-26T08:47:03.793Z,95435.25
2022-08-26T08:49:32.777Z,95430.50
2022-08-26T08:52:20.124Z,95433.91
2022-08-26T08:54:47.581Z,95430.06
2022-08-26T08:57:22.124Z,95438.69
2022-08-26T08:59:56.829Z,95428.03
2022-08-26T09:02:30.572Z,95424.66
2022-08-26T09:05:02.953Z,95425.59
2022-08-26T09:07:37.550Z,95419.84
2022-08-26T09:10:17.183Z,95424.41
2022-08-26T09:12:45.723Z,95420.28
2022-08-26T09:15:24.648Z,95419.81
2022-08-26T09:18:10.916Z,95418.41
2022-08-26T09:20:47.525Z,95418.13
2022-08-26T09:23:16.156Z,95424.19
2022-08-26T09:25:47.443Z,95410.69
2022-08-26T09:28:22.189Z,95421.81
2022-08-26T09:31:11.212Z,95421.09
2022-08-26T09:33:40.267Z,95413.06
2022-08-26T09:36:22.988Z,95415.47
2022-08-26T09:38:52.689Z,95419.94
2022-08-26T09:41:33.264Z,95416.28
2022-08-26T09:44:14.555Z,95412.63
2022-08-26T09:46:45.717Z,95403.06
2022-08-26T09:49:26.692Z,95397.38
2022-08-26T09:52:11.714Z,95400.19
2022-08-26T09:54:39.714Z,95396.75
2022-08-26T09:57:11.274Z,95396.78
2022-08-26T09:59:38.453Z,95401.25
2022-08-26T10:02:17.355Z,95396.97
2022-08-26T10:04:56.343Z,95391.03
2022-08-26T10:07:36.306Z,95385.41
2022-08-26T10:10:05.722Z,95374.75
2022-08-26T10:12:34.766Z,95373.97
2022-08-26T10:15:08.288Z,95370.19
2022-08-26T10:17:35.699Z,95371.84
2022-08-26T10:20:22.844Z,95369.34
2022-08-26T10:22:53.427Z,95363.53
2022-08-26T10:25:23.411Z,95358.72
2022-08-26T10:27:54.113Z,95351.63
2022-08-26T10:30:26.404Z,95347.44
2022-08-26T10:33:00.781Z,95346.69
2022-08-26T10:35:28.085Z,95343.56
2022-08-26T10:37:57.348Z,95346.06
2022-08-26T10:40:27.303Z,95342.41
2022-08-26T10:43:14.153Z,95351.84
2022-08-26T10:45:48.923Z,95347.91
2022-08-26T10:48:20.973Z,95345.59
2022-08-26T10:50:48.331Z,95344.34
2022-08-26T10:53:32.767Z,95340.28
2022-08-26T10:56:02.944Z,95345.06
2022-08-26T10:58:50.081Z,95351.84
2022-08-26T11:01:35.820Z,95349.25
2022-08-26T11:04:13.989Z,95349.06
2022-08-26T11:06:41.855Z,95353.50
2022-08-26T11:09:09.255Z,95347.03
2022-08-26T11:11:39.360Z,95348.97
2022-08-26T11:14:07.662Z,95346.69
2022-08-26T11:16:42.897Z,95338.81
2022-08-26T11:19:12.685Z,95339.59
2022-08-26T11:21:47.809Z,95344.69
2022-08-26T11:24:35.297Z,95339.63
2022-08-26T11:27:02.917Z,95342.31
2022-08-26T11:29:49.726Z,95342.13
2022-08-26T11:32:24.907Z,95338.00
2022-08-26T11:34:57.834Z,95331.81
2022-08-26T11:37:32.321Z,95327.09
2022-08-26T11:40:00.854Z,95322.94
2022-08-26T11:42:41.682Z,95326.47
2022-08-26T11:45:19.310Z,95323.31
2022-08-26T11:47:46.841Z,95323.91
2022-08-26T11:50:21.199Z,95323.66
2022-08-26T11:53:06.061Z,95328.16
2022-08-26T11:55:35.841Z,95318.16
2022-08-26T11:58:05.759Z,95322.78
2022-08-26T12:00:54.468Z,95309.41
2022-08-26T12:03:25.131Z,95305.56
2022-08-26T12:05:53.116Z,95305.72
2022-08-26T12:08:23.192Z,95299.53
2022-08-26T12:11:03.644Z,95294.47
2022-08-26T12:13:30.911Z,95292.84
2022-08-26T12:15:59.870Z,95282.75
2022-08-26T12:18:31.519Z,95282.59
2022-08-26T12:21:12.208Z,95272.88
2022-08-26T12:23:41.817Z,95283.72
2022-08-26T12:26:12.845Z,95276.09
2022-08-26T12:28:47.356Z,95293.19
2022-08-26T12:31:20.703Z,95291.16
2022-08-26T12:33:48.750Z,95294.34
2022-08-26T12:36:21.607Z,95289.56
2022-08-26T12:38:49.712Z,95287.31
2022-08-26T12:41:35.810Z,95278.56
2022-08-26T12:44:02.906Z,95280.13
2022-08-26T12:46:30.220Z,95267.53
2022-08-26T12:49:01.143Z,95266.03
2022-08-26T12:51:30.190Z,95269.16
2022-08-26T12:53:57.961Z,95266.72
2022-08-26T12:56:35.572Z,95262.56
2022-08-26T12:59:05.319Z,95264.91
2022-08-26T13:01:38.098Z,95266.03
2022-08-26T13:04:06.565Z,95268.53
2022-08-26T13:06:34.913Z,95266.97
2022-08-26T13:09:06.086Z,95270.38
2022-08-26T13:11:39.210Z,95265.34
2022-08-26T13:14:07.764Z,95262.75
2022-08-26T13:16:35.536Z,95272.59
2022-08-26T13:19:05.637Z,95276.19
2022-08-26T13:21:41.680Z,95276.19
2022-08-26T13:24:11.714Z,95275.81
2022-08-26T13:26:39.301Z,95278.50
2022-08-26T13:29:10.203Z,95272.09
2022-08-26T13:31:39.325Z,95268.06
2022-08-26T13:34:07.477Z,95266.91
2022-08-26T13:36:34.592Z,95268.91
2022-08-26T13:39:01.780Z,95257.97
2022-08-26T13:41:29.833Z,95261.09
2022-08-26T13:43:57.380Z,95263.84
2022-08-26T13:46:26.501Z,95273.69
2022-08-26T13:48:54.546Z,95269.28
2022-08-26T13:51:22.839Z,95264.22
2022-08-26T13:53:50.421Z,95268.63
2022-08-26T13:56:18.735Z,95278.44
2022-08-26T13:58:46.215Z,95269.34
2022-08-26T14:01:13.912Z,95267.47
2022-08-26T14:03:41.631Z,95267.47
2022-08-26T14:06:08.911Z,95263.47
2022-08-26T14:08:36.864Z,95254.75
2022-08-26T14:11:03.896Z,95244.47
2022-08-26T14:13:30.980Z,95242.16
2022-08-26T14:15:59.690Z,95233.53
2022-08-26T14:18:29.907Z,95235.78
2022-08-26T14:21:01.176Z,95242.28
2022-08-26T14:23:28.271Z,95245.19
2022-08-26T14:25:55.359Z,95246.69
2022-08-26T14:28:23.158Z,95242.47
2022-08-26T14:30:53.007Z,95243.19
2022-08-26T14:33:23.480Z,95252.94
2022-08-26T14:35:50.513Z,95249.91
2022-08-26T14:38:17.759Z,95250.72
2022-08-26T14:40:45.105Z,95246.88
2022-08-26T14:43:15.106Z,95254.63
2022-08-26T14:48:21.534Z,95249.69
2022-08-26T14:52:02.831Z,95238.53
2022-08-26T14:54:30.165Z,95226.69
2022-08-26T14:56:59.437Z,95223.22
2022-08-26T14:59:28.023Z,95229.56
2022-08-26T15:01:55.590Z,95218.63
2022-08-26T15:04:23.329Z,95231.28
2022-08-26T15:06:50.946Z,95219.13
2022-08-26T15:09:18.039Z,95212.66
2022-08-26T15:11:45.074Z,95211.94
2022-08-26T15:14:19.620Z,95214.38
2022-08-26T15:16:47.909Z,95218.88
2022-08-26T15:19:15.979Z,95222.47
2022-08-26T15:21:43.888Z,95214.28
2022-08-26T15:24:11.191Z,95219.28
2022-08-26T15:26:40.695Z,95216.16
2022-08-26T15:29:07.742Z,95215.16
2022-08-26T15:31:35.138Z,95223.91
2022-08-26T15:34:13.313Z,95218.41
2022-08-26T15:36:44.902Z,95213.69
2022-08-26T15:39:12.611Z,95228.47
2022-08-26T15:41:39.705Z,95247.13
2022-08-26T15:44:07.567Z,95249.31
2022-08-26T15:46:38.584Z,95238.75
2022-08-26T15:49:06.189Z,95249.50
2022-08-26T15:51:45.692Z,95258.19
2022-08-26T15:54:14.068Z,95262.09
2022-08-26T15:56:41.091Z,95270.31
2022-08-26T15:59:11.820Z,95264.72
2022-08-26T16:01:39.494Z,95263.81
2022-08-26T16:04:06.771Z,95285.06
2022-08-26T16:06:34.797Z,95283.22
2022-08-26T16:09:06.194Z,95280.41
2022-08-26T16:11:33.930Z,95279.78
2022-08-26T16:14:00.932Z,95276.31
2022-08-26T16:16:28.021Z,95271.63
2022-08-26T16:18:55.211Z,95272.28
2022-08-26T16:21:24.326Z,95272.31
2022-08-26T16:23:51.816Z,95265.53
2022-08-26T16:26:20.531Z,95266.34
2022-08-26T16:28:47.858Z,95261.72
2022-08-26T16:31:15.299Z,95260.94
2022-08-26T16:33:42.395Z,95257.06
2022-08-26T16:36:10.106Z,95256.59
2022-08-26T16:38:37.620Z,95251.13
2022-08-26T16:41:05.467Z,95253.31
2022-08-26T16:43:32.533Z,95255.50
2022-08-26T16:45:59.722Z,95251.91
2022-08-26T16:48:27.458Z,95253.75
2022-08-26T16:50:55.584Z,95253.38
2022-08-26T16:53:23.021Z,95248.19
2022-08-26T16:55:50.828Z,95236.91
2022-08-26T16:58:18.400Z,95238.84
2022-08-26T17:00:45.447Z,95238.84
2022-08-26T17:03:12.663Z,95227.75
2022-08-26T17:05:40.273Z,95222.91
2022-08-26T17:08:07.765Z,95219.63
2022-08-26T17:10:35.095Z,95220.97
2022-08-26T17:13:02.496Z,95215.06
2022-08-26T17:15:29.764Z,95220.00
2022-08-26T17:17:57.058Z,95221.69
2022-08-26T17:20:24.866Z,95221.56
2022-08-26T17:22:53.454Z,95223.16
2022-08-26T17:25:22.549Z,95224.31
2022-08-26T17:27:49.653Z,95214.97
2022-08-26T17:30:17.752Z,95222.66
2022-08-26T17:32:45.504Z,95217.97
2022-08-26T17:35:13.320Z,95219.81
2022-08-26T17:37:40.921Z,95217.78
2022-08-26T17:40:11.246Z,95218.56
2022-08-26T17:42:39.067Z,95220.06
2022-08-26T17:45:07.128Z,95224.13
2022-08-26T17:47:34.347Z,95225.78
2022-08-26T17:50:01.698Z,95229.78
2022-08-26T17:52:29.340Z,95239.56
2022-08-26T17:54:56.893Z,95232.31
2022-08-26T17:57:24.507Z,95228.59
2022-08-26T17:59:52.777Z,95233.69
2022-08-26T18:02:21.029Z,95238.66
2022-08-26T18:04:48.608Z,95237.34
2022-08-26T18:07:16.111Z,95248.78
2022-08-26T18:09:43.193Z,95263.47
2022-08-26T18:12:10.339Z,95256.72
2022-08-26T18:14:37.541Z,95253.53
2022-08-26T18:17:04.979Z,95258.13
2022-08-26T18:19:34.412Z,95267.09
2022-08-26T18:22:01.731Z,95269.81
2022-08-26T18:24:30.415Z,95278.03
2022-08-26T18:26:59.453Z,95278.28
2022-08-26T18:29:27.920Z,95276.94
2022-08-26T18:31:55.073Z,95271.69
2022-08-26T18:34:22.270Z,95278.75
2022-08-26T18:36:52.079Z,95279.53
2022-08-26T18:39:19.476Z,95277.94
2022-08-26T18:41:53.073Z,95278.75
2022-08-26T18:44:23.894Z,95283.75
2022-08-26T18:46:51.656Z,95283.19
2022-08-26T18:49:20.289Z,95281.75
2022-08-26T18:51:47.806Z,95271.53
2022-08-26T18:54:14.930Z,95270.66
2022-08-26T18:56:42.457Z,95277.63
2022-08-26T18:59:10.226Z,95275.78
2022-08-26T19:01:39.232Z,95284.41
2022-08-26T19:04:06.966Z,95296.78
2022-08-26T19:06:35.530Z,95334.25
2022-08-26T19:09:04.421Z,95325.28
2022-08-26T19:11:38.287Z,95365.03
2022-08-26T19:14:13.531Z,95352.31
2022-08-26T19:16:42.031Z,95355.47
2022-08-26T19:19:09.713Z,95363.69
2022-08-26T19:21:37.185Z,95350.28
2022-08-26T19:24:06.039Z,95349.59
2022-08-26T19:26:33.155Z,95350.06
2022-08-26T19:29:00.322Z,95345.13
2022-08-26T19:31:27.518Z,95344.56
2022-08-26T19:33:56.595Z,95337.88
2022-08-26T19:36:24.756Z,95335.16
2022-08-26T19:38:52.447Z,95337.00
2022-08-26T19:41:24.545Z,95334.03
2022-08-26T19:43:55.450Z,95330.59
2022-08-26T19:46:26.509Z,95338.00
2022-08-26T19:48:55.745Z,95331.50
2022-08-26T19:51:24.556Z,95333.34
2022-08-26T19:53:52.749Z,95329.25
2022-08-26T19:56:20.849Z,95329.25
2022-08-26T19:58:48.515Z,95334.00
2022-08-26T20:01:16.232Z,95330.28
2022-08-26T20:03:44.036Z,95328.78
2022-08-26T20:06:12.192Z,95349.91
2022-08-26T20:08:39.981Z,95349.25
2022-08-26T20:11:09.074Z,95353.78
2022-08-26T20:13:36.500Z,95364.09
2022-08-26T20:16:04.073Z,95362.59
2022-08-26T20:18:50.031Z,95360.56
2022-08-26T20:21:26.191Z,95370.06
2022-08-26T20:24:00.975Z,95362.81
2022-08-26T20:26:28.677Z,95368.72
2022-08-26T20:28:56.395Z,95370.66
2022-08-26T20:31:24.110Z,95378.13
2022-08-26T20:33:51.680Z,95377.00
2022-08-26T20:36:20.372Z,95381.00
2022-08-26T20:38:47.764Z,95376.69
2022-08-26T20:41:14.858Z,95384.16
2022-08-26T20:43:45.038Z,95379.97
2022-08-26T20:46:18.012Z,95377.38
2022-08-26T20:48:47.222Z,95383.28
2022-08-26T20:51:14.873Z,95390.31
2022-08-26T20:53:41.977Z,95386.88
2022-08-26T20:56:09.759Z,95385.50
2022-08-26T20:58:37.447Z,95383.25
2022-08-26T21:01:07.959Z,95385.66
2022-08-26T21:03:35.973Z,95372.81
2022-08-26T21:06:03.846Z,95365.78
2022-08-26T21:08:33.063Z,95368.50
2022-08-26T21:11:00.905Z,95364.59
2022-08-26T21:13:42.831Z,95376.53
2022-08-26T21:16:15.678Z,95382.31
2022-08-26T21:18:42.971Z,95380.69
2022-08-26T21:21:10.267Z,95383.78
2022-08-26T21:23:37.743Z,95390.69
2022-08-26T21:26:09.374Z,95395.47
2022-08-26T21:28:37.289Z,95404.53
2022-08-26T21:31:06.985Z,95411.09
2022-08-26T21:33:35.733Z,95415.75
2022-08-26T21:36:03.953Z,95436.94
2022-08-26T21:38:31.170Z,95441.31
2022-08-26T21:41:02.170Z,95439.41
2022-08-26T21:43:35.180Z,95430.88
2022-08-26T21:46:11.318Z,95425.66
2022-08-26T21:48:39.079Z,95424.03
2022-08-26T21:51:06.705Z,95430.28
2022-08-26T21:53:34.191Z,95419.41
2022-08-26T21:56:05.938Z,95423.72
2022-08-26T21:58:33.072Z,95416.03
2022-08-26T22:01:00.374Z,95417.16
2022-08-26T22:03:27.846Z,95419.88
2022-08-26T22:06:01.264Z,95418.28
2022-08-26T22:08:30.153Z,95421.66
2022-08-26T22:10:57.415Z,95417.66
2022-08-26T22:13:26.354Z,95414.63
2022-08-26T22:15:54.044Z,95415.25
2022-08-26T22:18:21.493Z,95395.56
2022-08-26T22:20:48.581Z,95400.53
2022-08-26T22:23:15.681Z,95395.75
2022-08-26T22:25:42.788Z,95382.47
2022-08-26T22:28:10.045Z,95378.16
2022-08-26T22:30:37.393Z,95369.19
2022-08-26T22:33:04.615Z,95373.72
2022-08-26T22:35:31.721Z,95363.63
2022-08-26T22:37:59.173Z,95358.84
2022-08-26T22:40:26.404Z,95355.78
2022-08-26T22:42:55.617Z,95353.41
2022-08-26T22:45:27.396Z,95351.34
2022-08-26T22:47:54.718Z,95347.84
2022-08-26T22:50:21.761Z,95347.84
2022-08-26T22:52:48.847Z,95346.44
2022-08-26T22:55:15.980Z,95339.88
2022-08-26T22:57:43.069Z,95338.81
2022-08-26T23:00:13.424Z,95343.47
2022-08-26T23:02:41.250Z,95340.75
2022-08-26T23:05:08.850Z,95341.88
2022-08-26T23:07:36.565Z,95336.44
2022-08-26T23:10:04.667Z,95332.69
2022-08-26T23:12:32.516Z,95336.69
2022-08-26T23:15:01.145Z,95336.84
2022-08-26T23:17:28.289Z,95333.63
2022-08-26T23:19:55.357Z,95331.56
2022-08-26T23:22:22.383Z,95330.66
2022-08-26T23:24:49.889Z,95323.94
2022-08-26T23:27:17.092Z,95324.63
2022-08-26T23:29:44.114Z,95321.44
2022-08-26T23:32:11.251Z,95317.59
2022-08-26T23:34:56.984Z,95316.91
2022-08-26T23:37:25.654Z,95318.50
2022-08-26T23:39:53.920Z,95321.22
2022-08-26T23:42:21.027Z,95316.13
2022-08-26T23:44:48.153Z,95317.94
2022-08-26T23:47:16.030Z,95311.22
2022-08-26T23:49:43.144Z,95312.81
2022-08-26T23:52:29.464Z,95318.25
2022-08-26T23:54:56.776Z,95318.91
2022-08-26T23:57:25.205Z,95313.19
2022-08-26T23:59:53.245Z,95318.84
